Time;durP1;ratioP1;P1;durP2;ratioP2;P2;SDS_P1;SDS_P2;PMS_P1;PMS_P2;Temp;Humidity;BMP_temperature;BMP_pressure;BME280_temperature;BME280_humidity;BME280_pressure;Samples;Min_cycle;Max_cycle;Signal;HPM_P1;HPM_P2
2021/12/12 00:01:19;;;;;;;72.97;25.07;;;;;;;-2.62;100.00;101223.05;3469105;82;99160;-79
2021/12/12 00:06:31;;;;;;;69.93;24.47;;;;;;;-2.63;100.00;101219.31;3491740;82;26028;-79
2021/12/12 00:11:35;;;;;;;69.53;23.07;;;;;;;-2.62;100.00;101213.63;3465660;83;98927;-79
2021/12/12 00:16:37;;;;;;;72.30;23.57;;;;;;;-2.59;100.00;101223.87;3467032;83;98443;-78
2021/12/12 00:21:42;;;;;;;74.10;25.93;;;;;;;-2.59;100.00;101219.83;3451342;83;99473;-79
2021/12/12 00:26:47;;;;;;;69.67;24.03;;;;;;;-2.57;100.00;101229.00;3434223;83;98953;-79
2021/12/12 00:31:51;;;;;;;82.85;26.60;;;;;;;-2.55;100.00;101229.53;3456075;83;99278;-79
2021/12/12 00:36:52;;;;;;;77.30;26.73;;;;;;;-2.51;100.00;101238.13;3514983;83;25986;-79
2021/12/12 00:42:07;;;;;;;81.57;27.30;;;;;;;-2.51;100.00;101235.44;3477324;83;99122;-79
2021/12/12 00:47:10;;;;;;;67.03;23.50;;;;;;;-2.51;100.00;101240.83;3468166;83;98461;-79
2021/12/12 00:52:15;;;;;;;69.70;24.70;;;;;;;-2.52;100.00;101237.08;3468590;82;99218;-79
2021/12/12 00:57:19;;;;;;;63.80;23.80;;;;;;;-2.54;100.00;101233.83;3455061;83;98607;-79
2021/12/12 01:02:25;;;;;;;76.07;25.70;;;;;;;-2.56;100.00;101243.55;3467677;83;99435;-79
2021/12/12 01:07:35;;;;;;;71.80;26.62;;;;;;;-2.54;100.00;101251.34;3446861;83;99306;-79
2021/12/12 01:12:37;;;;;;;67.70;25.73;;;;;;;-2.53;100.00;101254.30;3393626;84;98600;-79
2021/12/12 01:17:42;;;;;;;67.13;25.53;;;;;;;-2.58;100.00;101257.03;3402450;85;99215;-79
2021/12/12 01:22:44;;;;;;;66.30;22.63;;;;;;;-2.61;100.00;101251.64;3430724;84;99660;-79
2021/12/12 01:27:45;;;;;;;72.60;25.40;;;;;;;-2.60;100.00;101241.13;3414577;83;103018;-79
2021/12/12 01:32:49;;;;;;;78.40;25.97;;;;;;;-2.56;100.00;101248.13;3426267;83;100008;-79
2021/12/12 01:43:26;;;;;;;67.60;24.23;;;;;;;-2.64;100.00;101229.27;3430642;84;99448;-79
2021/12/12 01:48:36;;;;;;;67.30;25.50;;;;;;;-2.60;100.00;101217.41;3484111;83;99282;-79
2021/12/12 01:53:42;;;;;;;73.20;26.10;;;;;;;-2.57;100.00;101213.63;3429097;83;99257;-78
2021/12/12 01:58:47;;;;;;;72.08;26.27;;;;;;;-2.63;100.00;101222.79;3421401;83;99312;-79
2021/12/12 02:03:53;;;;;;;70.93;26.43;;;;;;;-2.71;100.00;101216.61;3475749;82;98506;-79
2021/12/12 02:08:55;;;;;;;;;;;;;;;-2.71;100.00;101217.14;3477523;82;99399;-79
2021/12/12 02:14:02;;;;;;;65.27;23.77;;;;;;;-2.75;100.00;101233.05;3481261;82;84353;-79
2021/12/12 02:19:05;;;;;;;63.15;22.20;;;;;;;-2.77;100.00;101250.55;3476843;82;99404;-79
2021/12/12 02:40:09;;;;;;;66.07;24.23;;;;;;;-2.81;100.00;101266.97;3487961;82;99041;-78
2021/12/12 02:45:11;;;;;;;;;;;;;;;-2.79;100.00;101266.19;3482770;83;98475;-78
2021/12/12 02:50:20;;;;;;;79.50;25.87;;;;;;;-2.80;100.00;101272.09;3465676;82;84467;-78
2021/12/12 02:55:29;;;;;;;74.83;23.60;;;;;;;-2.78;100.00;101270.48;3396530;85;99364;-78
2021/12/12 03:00:35;;;;;;;58.60;23.02;;;;;;;-2.79;100.00;101268.32;3448987;83;99116;-78
2021/12/12 03:05:42;;;;;;;65.12;27.95;;;;;;;-2.77;100.00;101262.67;3422583;84;99647;-79
2021/12/12 03:10:48;;;;;;;62.67;22.40;;;;;;;-2.77;100.00;101257.28;3441648;83;99271;-78
2021/12/12 03:15:50;;;;;;;60.05;22.20;;;;;;;-2.79;100.00;101259.45;3473116;83;100054;-79
2021/12/12 03:20:56;;;;;;;59.60;22.15;;;;;;;-2.76;100.00;101261.59;3480772;83;99976;-79
2021/12/12 03:26:03;;;;;;;;;;;;;;;-2.76;100.00;101261.59;3427127;84;99892;-78
2021/12/12 03:31:09;;;;;;;53.13;21.87;;;;;;;-2.74;100.00;101272.92;3428044;84;84546;-78
2021/12/12 03:36:12;;;;;;;55.55;21.17;;;;;;;-2.78;100.00;101277.22;3417908;84;25494;-78
2021/12/12 03:41:18;;;;;;;51.90;20.60;;;;;;;-2.74;100.00;101283.14;3459093;83;99231;-78
2021/12/12 03:46:20;;;;;;;51.13;19.90;;;;;;;-2.72;100.00;101289.61;3415893;85;98771;-78
2021/12/12 03:51:25;;;;;;;56.80;21.73;;;;;;;-2.71;100.00;101284.49;3424411;83;99359;-79
2021/12/12 03:56:26;;;;;;;63.47;25.10;;;;;;;-2.70;100.00;101285.58;3442733;83;99428;-78
2021/12/12 04:01:38;;;;;;;70.75;24.05;;;;;;;-2.68;100.00;101282.62;3468226;82;100036;-78
2021/12/12 04:06:40;;;;;;;65.40;24.90;;;;;;;-2.69;100.00;101281.01;3435346;84;33234;-79
2021/12/12 04:11:52;;;;;;;59.70;23.40;;;;;;;-2.66;100.00;101285.84;3440098;82;99682;-78
2021/12/12 04:17:01;;;;;;;50.47;20.70;;;;;;;-2.68;100.00;101275.88;3430815;83;99617;-79
2021/12/12 04:22:03;;;;;;;63.23;25.10;;;;;;;-2.65;100.00;101286.11;3471814;82;99070;-79
2021/12/12 04:27:06;;;;;;;66.10;24.27;;;;;;;-2.65;100.00;101279.38;3436295;84;99113;-79
2021/12/12 04:32:15;;;;;;;64.62;22.55;;;;;;;-2.67;100.00;101281.53;3439443;83;99313;-78
2021/12/12 04:37:18;;;;;;;66.83;24.57;;;;;;;-2.69;100.00;101284.49;3478769;83;99860;-78
2021/12/12 04:42:24;;;;;;;63.17;24.77;;;;;;;-2.67;100.00;101277.50;3453542;83;98967;-78
2021/12/12 04:53:30;;;;;;;76.17;23.60;;;;;;;-2.61;100.00;101288.55;3471917;82;99162;-79
2021/12/12 04:58:45;;;;;;;75.20;24.95;;;;;;;-2.60;100.00;101282.89;3459635;83;99677;-79
2021/12/12 05:04:26;;;;;;;68.70;23.20;;;;;;;-2.56;100.00;101292.06;3450624;83;99819;-79
2021/12/12 05:09:46;;;;;;;79.07;26.97;;;;;;;-2.52;100.00;101290.98;3470524;83;99856;-79
2021/12/12 05:15:07;;;;;;;77.33;27.73;;;;;;;-2.48;100.00;101298.24;3472347;83;99821;-79
2021/12/12 05:20:20;;;;;;;80.45;26.15;;;;;;;-2.44;100.00;101311.98;3445921;82;99800;-79
2021/12/12 05:25:26;;;;;;;80.30;28.80;;;;;;;-2.41;100.00;101308.20;3370944;85;98606;-79
2021/12/12 05:30:31;;;;;;;85.85;27.35;;;;;;;-2.38;100.00;101313.07;3401903;84;99330;-79
2021/12/12 05:35:36;;;;;;;90.30;30.70;;;;;;;-2.34;100.00;101310.64;3443765;83;99142;-79
2021/12/12 05:40:41;;;;;;;90.03;31.73;;;;;;;-2.32;100.00;101316.56;3417091;83;99557;-79
2021/12/12 05:45:42;;;;;;;92.10;31.47;;;;;;;-2.29;100.00;101314.13;3409834;84;99329;-80
2021/12/12 05:50:45;;;;;;;88.10;29.10;;;;;;;-2.23;100.00;101321.69;3392688;84;99281;-79
2021/12/12 05:55:47;;;;;;;85.90;28.67;;;;;;;-2.19;100.00;101320.07;3389497;84;99110;-79
2021/12/12 06:00:56;;;;;;;72.13;27.53;;;;;;;-2.14;100.00;101332.20;3378900;84;99489;-79
2021/12/12 06:05:58;;;;;;;79.27;28.77;;;;;;;-2.10;100.00;101326.52;3404528;84;99045;-80
2021/12/12 06:11:00;;;;;;;78.60;30.30;;;;;;;-2.08;100.00;101326.52;3392749;84;99576;-79
2021/12/12 06:16:02;;;;;;;81.13;29.70;;;;;;;-2.06;100.00;101328.41;3425923;84;99807;-79
2021/12/12 06:21:04;;;;;;;91.55;32.20;;;;;;;-2.05;100.00;101332.72;3404928;83;99433;-79
2021/12/12 06:26:05;;;;;;;91.83;30.60;;;;;;;-2.04;100.00;101341.61;3448385;83;99454;-79
2021/12/12 06:31:09;;;;;;;86.27;30.43;;;;;;;-2.02;100.00;101340.81;3424991;83;98723;-79
2021/12/12 06:36:13;;;;;;;88.30;30.17;;;;;;;-2.00;100.00;101344.03;3435604;83;33273;-80
2021/12/12 06:41:14;;;;;;;81.75;29.72;;;;;;;-1.97;100.00;101352.39;3426642;82;99346;-80
2021/12/12 06:46:17;;;;;;;87.85;29.60;;;;;;;-1.98;100.00;101356.17;3408866;84;99389;-80
2021/12/12 06:51:18;;;;;;;84.70;30.97;;;;;;;-1.97;100.00;101355.64;3407771;84;99563;-80
2021/12/12 06:56:21;;;;;;;87.67;32.47;;;;;;;-1.95;100.00;101370.48;3423993;84;99375;-80
2021/12/12 07:01:28;;;;;;;82.40;32.60;;;;;;;-1.92;100.00;101371.83;3429036;84;99881;-80
2021/12/12 07:06:30;;;;;;;84.03;31.53;;;;;;;-1.90;100.00;101374.52;3479704;83;26316;-80
2021/12/12 07:11:33;;;;;;;78.10;26.40;;;;;;;-1.88;100.00;101375.58;3477259;83;98815;-80
2021/12/12 07:16:35;;;;;;;93.03;31.67;;;;;;;-1.85;100.00;101383.95;3478072;83;99194;-80
2021/12/12 07:21:37;;;;;;;83.03;29.13;;;;;;;-1.83;100.00;101382.31;3485255;83;99482;-80
2021/12/12 07:26:38;;;;;;;82.80;28.60;;;;;;;-1.81;100.00;101374.77;3495576;83;99330;-80
2021/12/12 07:31:41;;;;;;;87.00;30.20;;;;;;;-1.79;100.00;101388.27;3466576;82;99749;-80
2021/12/12 07:36:49;;;;;;;86.83;30.37;;;;;;;-1.78;100.00;101391.22;3443418;83;33550;-80
2021/12/12 07:41:54;;;;;;;91.15;31.25;;;;;;;-1.76;100.00;101390.96;3405081;84;99201;-80
2021/12/12 07:46:58;;;;;;;85.43;28.83;;;;;;;-1.75;100.00;101390.66;3471353;82;99143;-80
2021/12/12 07:51:59;;;;;;;89.53;31.40;;;;;;;-1.71;100.00;101393.66;3485553;83;99029;-80
2021/12/12 07:57:01;;;;;;;85.67;31.13;;;;;;;-1.68;100.00;101406.58;3469885;83;98595;-81
2021/12/12 08:02:05;;;;;;;94.13;31.87;;;;;;;-1.67;100.00;101406.84;3465269;83;98971;-81
2021/12/12 08:07:14;;;;;;;83.07;29.27;;;;;;;-1.62;100.00;101413.05;3463307;83;98572;-81
2021/12/12 08:12:19;;;;;;;83.82;31.48;;;;;;;-1.57;100.00;101423.84;3465435;83;99199;-81
2021/12/12 08:17:21;;;;;;;90.50;32.67;;;;;;;-1.52;100.00;101423.84;3460155;83;98422;-81
2021/12/12 08:22:25;;;;;;;96.70;35.03;;;;;;;-1.47;100.00;101440.03;3462770;83;99316;-81
2021/12/12 08:27:28;;;;;;;91.73;34.60;;;;;;;-1.40;100.00;101446.48;3478095;83;99471;-81
2021/12/12 08:32:29;;;;;;;96.03;35.63;;;;;;;-1.38;100.00;101438.38;3444468;83;99425;-81
2021/12/12 08:37:30;;;;;;;97.27;36.80;;;;;;;-1.32;100.00;101438.62;3454626;83;98564;-81
2021/12/12 08:42:33;;;;;;;100.93;36.47;;;;;;;-1.26;100.00;101447.53;3454732;83;98864;-82
2021/12/12 08:47:35;;;;;;;115.17;40.17;;;;;;;-1.24;100.00;101461.56;3439108;84;99398;-81
2021/12/12 08:52:41;;;;;;;102.87;37.37;;;;;;;-1.20;100.00;101454.54;3427350;83;99500;-82
2021/12/12 08:58:17;;;;;;;107.17;36.33;;;;;;;-1.17;100.00;101451.27;3437796;83;99584;-82
2021/12/12 09:02:53;;;;;;;107.03;37.03;;;;;;;-1.10;100.00;101451.25;3449101;83;99588;-81
2021/12/12 09:08:00;;;;;;;99.97;40.80;;;;;;;-1.01;100.00;101440.69;3478145;82;99520;-82
2021/12/12 09:13:21;;;;;;;98.35;33.83;;;;;;;-0.93;100.00;101441.48;3433987;84;26614;-82
2021/12/12 09:18:31;;;;;;;95.90;39.83;;;;;;;-0.87;100.00;101439.02;3436969;84;99054;-81
2021/12/12 09:23:48;;;;;;;121.60;42.83;;;;;;;-0.80;100.00;101436.29;3469100;83;99156;-82
2021/12/12 09:29:19;;;;;;;96.00;34.98;;;;;;;-0.70;100.00;101425.44;3451200;83;101236;-82
2021/12/12 09:34:34;;;;;;;89.53;35.07;;;;;;;-0.62;100.00;101433.51;3438168;83;99465;-82
2021/12/12 09:39:46;;;;;;;92.33;35.17;;;;;;;-0.62;100.00;101426.19;3449296;83;99275;-82
2021/12/12 09:45:14;;;;;;;87.33;37.27;;;;;;;-0.60;100.00;101426.70;3456832;83;98357;-82
2021/12/12 09:56:27;;;;;;;98.00;38.10;;;;;;;-0.58;100.00;101426.44;3417205;84;99200;-82
2021/12/12 10:01:55;;;;;;;88.35;32.42;;;;;;;-0.50;100.00;101421.81;3409147;84;99259;-82
2021/12/12 10:07:13;;;;;;;92.43;35.33;;;;;;;-0.47;100.00;101433.66;3398786;84;25948;-82
2021/12/12 10:12:21;;;;;;;94.67;34.55;;;;;;;-0.38;100.00;101422.27;3412353;84;99405;-82
2021/12/12 10:17:45;;;;;;;94.90;35.97;;;;;;;-0.37;100.00;101415.23;3422947;84;98270;-82
2021/12/12 10:23:12;;;;;;;95.23;35.10;;;;;;;-0.37;100.00;101411.97;3413833;84;99231;-82
2021/12/12 10:28:37;;;;;;;84.50;35.48;;;;;;;-0.36;100.00;101406.03;3455162;84;99211;-82
2021/12/12 10:34:04;;;;;;;96.70;35.50;;;;;;;-0.29;100.00;101416.53;3455537;83;99209;-82
2021/12/12 10:39:13;;;;;;;100.02;38.70;;;;;;;-0.22;100.00;101418.62;3354394;85;99296;-82
2021/12/12 10:44:32;;;;;;;98.97;36.83;;;;;;;-0.17;100.00;101411.58;3419432;82;99353;-82
2021/12/12 10:49:43;;;;;;;93.60;35.33;;;;;;;-0.15;100.00;101408.29;3452882;83;99221;-83
2021/12/12 10:54:55;;;;;;;100.97;35.80;;;;;;;-0.10;100.00;101408.81;3446578;83;25349;-82
2021/12/12 11:00:08;;;;;;;103.25;37.60;;;;;;;-0.04;100.00;101409.83;3445745;83;99144;-83
2021/12/12 11:05:19;;;;;;;92.83;33.57;;;;;;;0.04;100.00;101407.06;3449192;83;98356;-82
2021/12/12 11:10:27;;;;;;;101.43;35.97;;;;;;;0.08;100.00;101412.17;3417950;83;99029;-82
2021/12/12 11:15:45;;;;;;;96.53;37.33;;;;;;;0.14;100.00;101405.09;3451628;83;99259;-82
2021/12/12 11:21:00;;;;;;;96.93;35.37;;;;;;;0.15;100.00;101398.58;3440948;83;99402;-83
2021/12/12 11:26:40;;;;;;;99.47;37.10;;;;;;;0.19;100.00;101394.75;3467525;83;98981;-83
2021/12/12 11:31:45;;;;;;;94.43;35.07;;;;;;;0.24;100.00;101392.78;3447506;83;99256;-82
2021/12/12 11:37:21;;;;;;;92.93;34.77;;;;;;;0.32;100.00;101390.83;3471265;83;27505;-82
2021/12/12 11:42:45;;;;;;;87.13;33.90;;;;;;;0.36;100.00;101381.05;3447087;83;98885;-82
2021/12/12 11:48:10;;;;;;;95.03;33.67;;;;;;;0.44;100.00;101399.37;3439182;83;98915;-83
2021/12/12 11:53:45;;;;;;;95.30;34.47;;;;;;;0.51;100.00;101390.34;3453699;83;98934;-82
2021/12/12 11:59:10;;;;;;;88.73;32.97;;;;;;;0.56;100.00;101390.30;3444031;84;99754;-82
2021/12/12 12:04:28;;;;;;;97.37;36.13;;;;;;;0.54;100.00;101384.38;3431610;83;99019;-82
2021/12/12 12:10:03;;;;;;;89.20;35.65;;;;;;;0.58;100.00;101380.54;3457757;83;99100;-82
2021/12/12 12:15:21;;;;;;;98.67;36.97;;;;;;;0.60;100.00;101388.64;3458239;83;99118;-82
2021/12/12 12:20:45;;;;;;;101.37;36.70;;;;;;;0.59;100.00;101386.20;3455944;84;99110;-82
2021/12/12 12:32:06;;;;;;;100.47;35.03;;;;;;;0.57;100.00;101383.81;3436983;83;98913;-82
2021/12/12 12:38:02;;;;;;;106.25;38.70;;;;;;;0.63;100.00;101381.30;3421241;83;26556;-82
2021/12/12 12:43:46;;;;;;;108.80;41.53;;;;;;;0.65;100.00;101375.58;3449213;83;99331;-82
2021/12/12 12:49:38;;;;;;;108.95;38.20;;;;;;;0.70;100.00;101380.41;3456466;84;99018;-82
2021/12/12 12:55:06;;;;;;;116.88;42.43;;;;;;;0.71;100.00;101377.16;3438548;83;98213;-82
2021/12/12 13:00:18;;;;;;;102.50;41.50;;;;;;;0.69;100.00;101376.63;3420163;83;99306;-82
2021/12/12 13:05:58;;;;;;;117.83;43.03;;;;;;;0.64;100.00;101379.38;3482306;83;98329;-82
2021/12/12 13:11:03;;;;;;;102.75;36.08;;;;;;;0.58;100.00;101376.48;3400123;84;99204;-82
2021/12/12 13:16:35;;;;;;;112.83;40.60;;;;;;;0.59;100.00;101372.66;3409319;85;98794;-81
2021/12/12 13:22:12;;;;;;;110.00;42.25;;;;;;;0.61;100.00;101380.77;3458906;83;99675;-81
2021/12/12 13:28:02;;;;;;;123.92;42.70;;;;;;;0.57;100.00;101377.58;3453442;83;99250;-81
2021/12/12 13:33:22;;;;;;;109.33;38.90;;;;;;;0.52;100.00;101377.09;3437762;83;99283;-82
2021/12/12 13:38:34;;;;;;;110.50;41.35;;;;;;;0.50;100.00;101378.48;3455486;83;99130;-81
2021/12/12 13:44:01;;;;;;;109.90;42.90;;;;;;;0.46;100.00;101370.66;3464563;83;28944;-80
2021/12/12 13:49:37;;;;;;;110.00;42.70;;;;;;;0.44;100.00;101374.21;3449918;82;98894;-81
2021/12/12 13:55:06;;;;;;;108.57;41.33;;;;;;;0.44;100.00;101383.69;3488635;83;99173;-80
2021/12/12 14:00:18;;;;;;;113.10;39.77;;;;;;;0.43;100.00;101380.16;3457561;82;99201;-81
2021/12/12 14:05:30;;;;;;;98.97;37.45;;;;;;;0.41;100.00;101359.34;3441992;84;98665;-81
2021/12/12 14:10:37;;;;;;;112.03;39.70;;;;;;;0.37;100.00;101356.13;3411338;84;99152;-81
2021/12/12 14:15:49;;;;;;;103.12;40.43;;;;;;;0.38;100.00;101364.50;3414913;84;99665;-80
2021/12/12 14:20:54;;;;;;;108.50;40.60;;;;;;;0.34;100.00;101365.62;3379770;84;99785;-81
2021/12/12 14:26:10;;;;;;;102.20;42.63;;;;;;;0.37;100.00;101366.42;3484208;82;26577;-81
2021/12/12 14:31:16;;;;;;;112.65;43.15;;;;;;;0.36;100.00;101366.16;3454998;83;99289;-80
2021/12/12 14:36:22;;;;;;;112.10;43.90;;;;;;;0.38;100.00;101378.86;3472534;83;99083;-81
2021/12/12 14:41:34;;;;;;;113.27;44.20;;;;;;;0.37;100.00;101385.37;3455402;83;99445;-81
2021/12/12 14:46:39;;;;;;;105.23;43.30;;;;;;;0.33;100.00;101383.53;3470708;83;98930;-82
2021/12/12 14:52:06;;;;;;;111.70;41.63;;;;;;;0.30;100.00;101393.56;3472231;83;99214;-81
2021/12/12 14:57:13;;;;;;;107.23;41.70;;;;;;;0.29;100.00;101403.57;3469191;83;98380;-81
2021/12/12 15:02:44;;;;;;;102.67;42.08;;;;;;;0.28;100.00;101397.91;3473876;83;99027;-81
2021/12/12 15:07:49;;;;;;;102.90;43.17;;;;;;;0.32;100.00;101407.61;3463664;83;108152;-81
2021/12/12 15:12:54;;;;;;;89.00;39.70;;;;;;;0.29;100.00;101394.66;3476870;83;99282;-81
2021/12/12 15:18:02;;;;;;;103.70;48.33;;;;;;;0.28;100.00;101391.70;3466065;82;99352;-81
2021/12/12 15:23:08;;;;;;;149.17;60.97;;;;;;;0.28;100.00;101390.34;3472969;83;99284;-80
2021/12/12 15:28:14;;;;;;;110.37;45.15;;;;;;;0.29;100.00;101381.12;3464808;83;99272;-80
2021/12/12 15:33:22;;;;;;;88.67;42.13;;;;;;;0.32;100.00;101370.52;3444190;84;99600;-81
2021/12/12 15:38:28;;;;;;;93.10;40.20;;;;;;;0.35;100.00;101372.67;3417192;83;98740;-80
2021/12/12 15:43:34;;;;;;;96.85;43.13;;;;;;;0.37;100.00;101379.13;3423878;84;99166;-80
2021/12/12 15:48:44;;;;;;;;;;;;;;;0.38;100.00;101384.27;3438290;83;98979;-80
2021/12/12 15:54:03;;;;;;;83.47;38.63;;;;;;;0.44;100.00;101375.00;3463642;83;84294;-80
2021/12/12 15:59:11;;;;;;;86.22;41.68;;;;;;;0.42;100.00;101373.13;3404291;83;98755;-81
2021/12/12 16:04:25;;;;;;;95.27;44.27;;;;;;;0.42;100.00;101398.04;3403613;85;99093;-80
2021/12/12 16:09:35;;;;;;;94.75;45.28;;;;;;;0.41;100.00;101391.02;3407614;84;99143;-80
2021/12/12 16:14:38;;;;;;;94.40;44.07;;;;;;;0.42;100.00;101382.61;3408426;84;26110;-80
2021/12/12 16:19:40;;;;;;;98.12;45.15;;;;;;;0.43;100.00;101377.45;3390830;84;99060;-81
2021/12/12 16:24:47;;;;;;;103.87;46.75;;;;;;;0.42;100.00;101365.55;3404853;84;99006;-81
2021/12/12 16:29:53;;;;;;;95.10;45.38;;;;;;;0.39;100.00;101364.78;3402351;85;98834;-80
2021/12/12 16:34:56;;;;;;;95.65;47.85;;;;;;;0.37;100.00;101360.18;3398464;85;99035;-80
2021/12/12 16:40:18;;;;;;;101.10;46.40;;;;;;;0.34;100.00;101366.19;3434228;83;99141;-80
2021/12/12 16:45:53;;;;;;;95.77;44.90;;;;;;;0.27;100.00;101380.58;3446056;84;99246;-80
2021/12/12 16:50:58;;;;;;;95.07;42.60;;;;;;;0.23;100.00;101383.06;3429335;84;99038;-81
2021/12/12 16:56:03;;;;;;;93.07;44.80;;;;;;;0.17;100.00;101378.00;3437519;84;25972;-80
2021/12/12 17:01:27;;;;;;;132.90;61.50;;;;;;;0.15;100.00;101359.33;3420254;84;98818;-80
2021/12/12 17:06:40;;;;;;;104.63;51.23;;;;;;;0.10;100.00;101338.26;3427057;84;99164;-80
2021/12/12 17:11:57;;;;;;;101.53;50.35;;;;;;;0.03;100.00;101337.80;3394045;84;99371;-80
2021/12/12 17:17:02;;;;;;;92.00;45.00;;;;;;;-0.02;100.00;101355.42;3432175;84;99302;-80
2021/12/12 17:22:14;;;;;;;129.42;56.88;;;;;;;-0.03;100.00;101359.23;3450385;83;99363;-80
2021/12/12 17:27:19;;;;;;;101.60;46.63;;;;;;;-0.01;100.00;101348.92;3468677;83;99394;-80
2021/12/12 17:32:44;;;;;;;89.33;43.87;;;;;;;-0.03;100.00;101361.94;3468360;83;99480;-80
2021/12/12 17:37:46;;;;;;;101.78;45.43;;;;;;;-0.04;100.00;101362.47;3398965;84;99378;-80
2021/12/12 17:43:14;;;;;;;111.23;49.83;;;;;;;-0.06;100.00;101336.25;3465768;83;99146;-80
2021/12/12 17:48:59;;;;;;;100.90;45.73;;;;;;;-0.12;100.00;101336.58;3414988;84;99269;-81
2021/12/12 17:54:11;;;;;;;98.52;45.83;;;;;;;-0.16;100.00;101347.16;3474935;83;99442;-80
2021/12/12 17:59:26;;;;;;;121.30;54.30;;;;;;;-0.17;100.00;101352.84;3479336;83;99389;-80
2021/12/12 18:04:31;;;;;;;108.70;51.43;;;;;;;-0.14;100.00;101340.12;3471418;83;99820;-80
2021/12/12 18:09:59;;;;;;;103.40;48.57;;;;;;;-0.16;100.00;101340.40;3463199;83;99749;-80
2021/12/12 18:15:02;;;;;;;94.90;44.50;;;;;;;-0.16;100.00;101323.38;3449793;84;98627;-80
2021/12/12 18:20:30;;;;;;;112.93;52.40;;;;;;;-0.17;100.00;101338.79;3444886;83;98935;-80
2021/12/12 18:25:56;;;;;;;137.03;56.10;;;;;;;-0.13;100.00;101334.97;3432474;84;99399;-81
2021/12/12 18:31:16;;;;;;;98.15;46.88;;;;;;;-0.12;100.00;101328.45;3457067;82;99318;-80
2021/12/12 18:36:22;;;;;;;91.80;45.77;;;;;;;-0.15;100.00;101335.81;3451152;83;99115;-80
2021/12/12 18:41:28;;;;;;;96.55;45.80;;;;;;;-0.15;100.00;101343.36;3472867;83;99128;-80
2021/12/12 18:46:37;;;;;;;109.20;49.90;;;;;;;-0.15;100.00;101330.40;3454582;82;98465;-80
2021/12/12 18:51:43;;;;;;;91.97;43.90;;;;;;;-0.16;100.00;101328.79;3429909;82;99755;-81
2021/12/12 18:56:50;;;;;;;100.87;45.33;;;;;;;-0.15;100.00;101328.48;3466095;83;26794;-81
2021/12/12 19:02:05;;;;;;;101.13;46.80;;;;;;;-0.16;100.00;101335.55;3423419;83;98811;-81
2021/12/12 19:07:11;;;;;;;91.40;44.63;;;;;;;-0.16;100.00;101324.16;3430685;83;99703;-82
2021/12/12 19:12:18;;;;;;;110.08;49.23;;;;;;;-0.16;100.00;101340.40;3454058;83;99097;-81
2021/12/12 19:17:18;;;;;;;;;;;;;;;-0.13;100.00;101340.94;3449794;82;99372;-82
2021/12/12 19:22:33;;;;;;;95.37;47.30;;;;;;;-0.14;100.00;101353.64;3437599;83;84717;-81
2021/12/12 19:27:40;;;;;;;84.40;42.40;;;;;;;-0.17;100.00;101349.61;3453024;83;99277;-82
2021/12/12 19:32:43;;;;;;;103.07;45.60;;;;;;;-0.17;100.00;101343.38;3438565;83;98796;-82
2021/12/12 19:37:51;;;;;;;107.93;49.80;;;;;;;-0.16;100.00;101355.27;3392087;84;99334;-81
2021/12/12 19:43:03;;;;;;;100.90;50.00;;;;;;;-0.12;100.00;101356.33;3431923;83;99434;-80
2021/12/12 19:48:08;;;;;;;110.35;52.17;;;;;;;-0.15;100.00;101359.59;3439857;83;99816;-81
2021/12/12 19:53:10;;;;;;;103.37;45.53;;;;;;;-0.15;100.00;101333.10;3430010;83;99348;-80
2021/12/12 19:58:26;;;;;;;106.25;49.65;;;;;;;-0.17;100.00;101332.02;3470295;83;99749;-81
2021/12/12 20:03:32;;;;;;;116.83;49.90;;;;;;;-0.15;100.00;101339.86;3440181;83;99392;-81
2021/12/12 20:08:50;;;;;;;111.20;49.83;;;;;;;-0.12;100.00;101326.31;3442866;83;99167;-81
2021/12/12 20:13:56;;;;;;;116.17;51.23;;;;;;;-0.12;100.00;101348.22;3455809;83;99112;-81
2021/12/12 20:19:04;;;;;;;102.07;46.93;;;;;;;-0.10;100.00;101346.02;3445620;83;99718;-81
2021/12/12 20:24:20;;;;;;;106.60;50.27;;;;;;;-0.09;100.00;101339.52;3444422;83;98495;-82
2021/12/12 20:29:24;;;;;;;103.77;48.77;;;;;;;-0.11;100.00;101335.48;3437167;83;99659;-82
2021/12/12 20:34:26;;;;;;;106.13;48.47;;;;;;;-0.11;100.00;101340.89;3348508;85;99917;-89
2021/12/12 20:39:32;;;;;;;120.57;51.88;;;;;;;-0.14;100.00;101330.66;3416063;83;99423;-87
2021/12/12 20:44:45;;;;;;;109.63;48.55;;;;;;;-0.12;100.00;101331.16;3432635;83;26529;-87
2021/12/12 20:49:54;;;;;;;116.80;54.10;;;;;;;-0.10;100.00;101338.47;3402864;84;99136;-87
2021/12/12 20:55:02;;;;;;;105.43;46.47;;;;;;;-0.07;100.00;101331.69;3416662;84;99305;-88
2021/12/12 21:00:09;;;;;;;143.80;60.83;;;;;;;-0.06;100.00;101326.78;3415089;84;99785;-86
2021/12/12 21:05:21;;;;;;;119.77;51.80;;;;;;;-0.03;100.00;101310.53;3426996;84;99675;-86
2021/12/12 21:10:32;;;;;;;133.40;58.52;;;;;;;-0.02;100.00;101315.66;3453742;83;99559;-87
2021/12/12 21:15:44;;;;;;;109.47;52.07;;;;;;;-0.02;100.00;101306.72;3453796;83;99824;-87
2021/12/12 21:20:48;;;;;;;115.90;54.90;;;;;;;-0.04;100.00;101315.12;3466442;83;99693;-86
2021/12/12 21:25:57;;;;;;;105.33;49.53;;;;;;;-0.05;100.00;101317.57;3464499;83;98965;-85
2021/12/12 21:31:04;;;;;;;104.40;47.93;;;;;;;-0.09;100.00;101307.05;3415728;83;99757;-86
2021/12/12 21:36:38;;;;;;;108.10;51.60;;;;;;;-0.09;100.00;101302.98;3450903;83;99356;-84
2021/12/12 21:42:06;;;;;;;100.87;46.27;;;;;;;-0.08;100.00;101309.22;3452203;84;99308;-86
2021/12/12 21:47:26;;;;;;;106.70;47.83;;;;;;;-0.08;100.00;101315.98;3445150;83;99989;-85
2021/12/12 21:52:51;;;;;;;113.27;52.77;;;;;;;-0.07;100.00;101304.06;3415595;84;99395;-86
2021/12/12 21:58:14;;;;;;;105.17;51.77;;;;;;;-0.02;100.00;101307.29;3406839;83;99779;-86
2021/12/12 22:03:18;;;;;;;105.00;47.93;;;;;;;0.00;100.00;101291.81;3446862;84;99372;-86
2021/12/12 22:08:24;;;;;;;95.85;46.80;;;;;;;0.03;100.00;101290.44;3409450;84;99197;-83
2021/12/12 22:13:34;;;;;;;102.17;45.83;;;;;;;0.04;100.00;101292.86;3411344;84;99041;-87
2021/12/12 22:18:40;;;;;;;98.67;50.07;;;;;;;0.03;100.00;101306.14;3411432;84;99224;-86
2021/12/12 22:23:49;;;;;;;95.30;46.95;;;;;;;0.01;100.00;101308.30;3440159;84;99052;-86
2021/12/12 22:28:53;;;;;;;106.87;48.97;;;;;;;0.01;100.00;101305.59;3392475;84;99445;-86
2021/12/12 22:34:05;;;;;;;98.92;48.95;;;;;;;0.03;100.00;101296.67;3413620;84;99658;-85
2021/12/12 22:39:12;;;;;;;98.43;48.70;;;;;;;0.08;100.00;101297.97;3393083;85;99089;-85
2021/12/12 22:44:19;;;;;;;99.40;49.17;;;;;;;0.14;100.00;101298.71;3418297;84;33216;-86
2021/12/12 22:49:28;;;;;;;106.83;47.80;;;;;;;0.16;100.00;101301.39;3384487;85;99242;-86
2021/12/12 22:54:44;;;;;;;108.87;50.60;;;;;;;0.21;100.00;101298.63;3394948;85;99235;-86
2021/12/12 22:59:53;;;;;;;115.60;51.03;;;;;;;0.26;100.00;101293.70;3352699;85;99718;-85
2021/12/12 23:05:05;;;;;;;102.57;46.87;;;;;;;0.29;100.00;101304.76;3358138;85;99131;-86
2021/12/12 23:10:32;;;;;;;90.13;47.27;;;;;;;0.30;100.00;101295.56;3372003;84;99267;-86
2021/12/12 23:15:38;;;;;;;90.47;44.13;;;;;;;0.33;100.00;101295.54;3431156;83;99314;-86
2021/12/12 23:20:45;;;;;;;93.47;48.73;;;;;;;0.32;100.00;101302.84;3383027;84;99199;-87
2021/12/12 23:25:47;;;;;;;94.77;45.58;;;;;;;0.34;100.00;101289.02;3345084;86;99125;-86
2021/12/12 23:30:51;;;;;;;113.35;53.98;;;;;;;0.34;100.00;101292.52;3398059;84;99478;-86
2021/12/12 23:35:56;;;;;;;101.70;51.10;;;;;;;0.34;100.00;101287.67;3433866;83;99222;-85
2021/12/12 23:41:10;;;;;;;94.07;47.83;;;;;;;0.36;100.00;101276.81;3412258;84;99384;-86
2021/12/12 23:46:32;;;;;;;90.47;44.30;;;;;;;0.39;100.00;101289.76;3394715;83;99081;-86
2021/12/12 23:51:26;;;;;;;102.07;45.63;;;;;;;0.40;100.00;101284.59;3398140;84;99898;-86
2021/12/12 23:56:40;;;;;;;84.00;40.47;;;;;;;0.42;100.00;101287.02;3380134;84;33316;-86
